createdAt,value
2019-05-29T10:55:11.094Z,98469.41
2019-05-29T10:59:15.989Z,98469.19
2019-05-29T11:03:20.889Z,98466.73
2019-05-29T11:07:25.779Z,98460.23
2019-05-29T11:11:30.677Z,98461.83
2019-05-29T11:15:35.581Z,98464.11
2019-05-29T11:19:40.493Z,98467.39
2019-05-29T11:23:45.372Z,98466.24
2019-05-29T11:27:50.492Z,98470.33
2019-05-29T11:31:56.831Z,98460.78
2019-05-29T11:36:12.348Z,98466.00
2019-05-29T11:40:09.480Z,98465.43
2019-05-29T11:49:03.638Z,98473.33
2019-05-29T11:53:08.718Z,98468.72
2019-05-29T11:57:13.629Z,98473.88
2019-05-29T12:01:18.516Z,98467.70
2019-05-29T12:05:23.495Z,98462.40
2019-05-29T12:09:33.026Z,98467.72
2019-05-29T12:13:34.988Z,98461.74
2019-05-29T12:17:40.366Z,98469.48
2019-05-29T12:21:45.659Z,98468.78
2019-05-29T12:26:10.331Z,98462.11
2019-05-29T12:29:57.144Z,98469.00
2019-05-29T12:34:12.795Z,98466.95
2019-05-29T12:38:08.649Z,98465.75
2019-05-29T12:42:13.549Z,98462.42
2019-05-29T12:46:18.438Z,98470.69
2019-05-29T12:50:23.670Z,98463.30
2019-05-29T12:54:28.580Z,98457.84
2019-05-29T12:58:33.483Z,98458.79
2019-05-29T13:02:38.388Z,98461.05
2019-05-29T13:06:43.287Z,98463.66
2019-05-29T13:10:48.180Z,98464.56
2019-05-29T13:14:54.390Z,98457.50
2019-05-29T13:19:01.073Z,98454.11
2019-05-29T13:23:07.281Z,98458.94
2019-05-29T13:27:13.529Z,98462.81
2019-05-29T13:31:18.435Z,98460.03
2019-05-29T13:35:23.329Z,98465.20
2019-05-29T13:39:30.025Z,98456.14
2019-05-29T13:43:35.010Z,98458.23
2019-05-29T13:47:39.920Z,98465.86
2019-05-29T13:51:44.830Z,98463.84
2019-05-29T13:55:50.046Z,98458.11
2019-05-29T13:59:54.936Z,98460.33
2019-05-29T14:04:00.147Z,98455.32
2019-05-29T14:08:05.124Z,98463.28
2019-05-29T14:12:10.030Z,98459.13
2019-05-29T14:16:14.927Z,98462.68
2019-05-29T14:20:20.029Z,98461.66
2019-05-29T14:24:29.665Z,98462.13
2019-05-29T14:28:31.541Z,98461.82
2019-05-29T14:32:36.449Z,98458.91
2019-05-29T14:36:41.344Z,98463.11
2019-05-29T14:40:46.241Z,98462.80
2019-05-29T14:44:51.129Z,98462.53
2019-05-29T14:48:56.031Z,98462.56
2019-05-29T14:53:00.928Z,98466.72
2019-05-29T14:57:19.235Z,98463.66
2019-05-29T15:01:13.321Z,98458.91
2019-05-29T15:05:18.662Z,98467.10
2019-05-29T15:09:27.322Z,98464.55
2019-05-29T15:13:33.675Z,98464.86
2019-05-29T15:17:39.415Z,98461.03
2019-05-29T15:21:44.313Z,98468.20
2019-05-29T15:25:49.212Z,98460.50
2019-05-29T15:29:54.109Z,98466.99
2019-05-29T15:33:59.007Z,98465.95
2019-05-29T15:38:03.901Z,98473.30
2019-05-29T15:42:08.987Z,98469.52
2019-05-29T15:46:15.954Z,98468.58
2019-05-29T15:50:20.719Z,98471.70
2019-05-29T15:54:25.615Z,98468.11
2019-05-29T15:58:30.513Z,98468.96
2019-05-29T16:02:35.409Z,98464.73
2019-05-29T16:06:41.390Z,98466.22
2019-05-29T16:10:46.284Z,98466.95
2019-05-29T16:14:51.182Z,98465.89
2019-05-29T16:18:56.072Z,98466.52
2019-05-29T16:23:00.963Z,98461.63
2019-05-29T16:27:08.815Z,98466.77
2019-05-29T16:31:12.583Z,98465.58
2019-05-29T16:35:17.505Z,98473.88
2019-05-29T16:39:22.825Z,98471.91
2019-05-29T16:43:27.688Z,98468.03
2019-05-29T16:47:32.590Z,98480.57
2019-05-29T16:51:37.487Z,98474.13
2019-05-29T16:55:53.472Z,98479.80
2019-05-29T16:59:48.987Z,98483.34
2019-05-29T17:03:53.877Z,98486.94
2019-05-29T17:07:58.780Z,98486.94
2019-05-29T17:12:03.759Z,98493.58
2019-05-29T17:16:08.661Z,98490.66
2019-05-29T17:20:14.998Z,98501.27
2019-05-29T17:24:20.908Z,98495.10
2019-05-29T17:28:28.065Z,98502.50
2019-05-29T17:32:32.480Z,98502.59
2019-05-29T17:36:37.383Z,98499.48
2019-05-29T17:40:42.643Z,98501.10
2019-05-29T17:44:47.543Z,98504.52
2019-05-29T17:48:52.441Z,98502.70
2019-05-29T17:52:57.347Z,98501.20
2019-05-29T17:57:02.259Z,98499.11
2019-05-29T18:01:07.220Z,98496.48
2019-05-29T18:05:12.439Z,98502.53
2019-05-29T18:09:18.948Z,98504.42
2019-05-29T18:13:25.308Z,98506.11
2019-05-29T18:17:30.259Z,98514.06
2019-05-29T18:21:35.147Z,98515.83
2019-05-29T18:25:40.101Z,98518.36
2019-05-29T18:29:45.022Z,98524.01
2019-05-29T18:33:49.997Z,98526.42
2019-05-29T18:37:54.897Z,98529.25
2019-05-29T18:41:59.804Z,98538.66
2019-05-29T18:46:04.761Z,98530.01
2019-05-29T18:50:10.811Z,98533.65
2019-05-29T18:54:15.772Z,98539.93
2019-05-29T18:58:22.103Z,98544.59
2019-05-29T19:02:27.479Z,98543.86
2019-05-29T19:06:32.459Z,98551.38
2019-05-29T19:10:37.362Z,98556.74
2019-05-29T19:14:42.258Z,98564.89
2019-05-29T19:18:47.155Z,98562.59
2019-05-29T19:22:52.057Z,98567.55
2019-05-29T19:26:56.957Z,98572.48
2019-05-29T19:31:01.863Z,98584.50
2019-05-29T19:35:08.975Z,98590.92
2019-05-29T19:39:13.943Z,98593.83
2019-05-29T19:43:18.851Z,98593.92
2019-05-29T19:47:24.595Z,98598.05
2019-05-29T19:51:31.414Z,98604.89
2019-05-29T19:55:38.291Z,98611.11
2019-05-29T19:59:42.973Z,98611.36
2019-05-29T20:03:48.943Z,98613.30
2019-05-29T20:07:54.016Z,98624.32
2019-05-29T20:11:58.909Z,98627.47
2019-05-29T20:16:03.891Z,98641.30
2019-05-29T20:20:09.127Z,98641.30
2019-05-29T20:24:14.032Z,98650.98
2019-05-29T20:28:18.923Z,98652.17
2019-05-29T20:32:23.844Z,98650.19
2019-05-29T20:36:28.723Z,98650.72
2019-05-29T20:40:33.618Z,98645.91
2019-05-29T20:44:38.785Z,98657.32
2019-05-29T20:48:43.812Z,98655.48
2019-05-29T20:52:48.697Z,98653.47
2019-05-29T20:56:53.594Z,98660.77
2019-05-29T21:00:58.560Z,98666.03
2019-05-29T21:05:04.327Z,98672.30
2019-05-29T21:09:09.289Z,98647.20
2019-05-29T21:13:14.178Z,98647.20
2019-05-29T21:17:19.071Z,98671.41
2019-05-29T21:21:23.971Z,98672.47
2019-05-29T21:25:29.222Z,98679.28
2019-05-29T21:29:35.153Z,98687.31
2019-05-29T21:33:44.987Z,98689.55
2019-05-29T21:37:46.766Z,98690.86
2019-05-29T21:41:51.662Z,98686.14
2019-05-29T21:45:56.556Z,98695.72
2019-05-29T21:50:01.469Z,98697.17
2019-05-29T21:54:06.411Z,98696.39
2019-05-29T21:58:11.309Z,98702.83
2019-05-29T22:02:16.204Z,98701.66
2019-05-29T22:06:21.176Z,98702.62
2019-05-29T22:10:26.448Z,98702.39
2019-05-29T22:14:31.560Z,98707.47
2019-05-29T22:18:36.462Z,98698.81
2019-05-29T22:22:41.367Z,98701.98
2019-05-29T22:26:46.265Z,98708.55
2019-05-29T22:30:51.341Z,98699.35
2019-05-29T22:34:57.551Z,98697.17
2019-05-29T22:39:02.572Z,98695.91
2019-05-29T22:43:07.842Z,98686.38
2019-05-29T22:47:12.735Z,98687.61
2019-05-29T22:51:17.633Z,98686.38
2019-05-29T22:55:22.521Z,98693.81
2019-05-29T22:59:31.963Z,98691.28
2019-05-29T23:03:34.008Z,98690.50
2019-05-29T23:07:38.906Z,98687.97
2019-05-29T23:11:43.817Z,98691.55
2019-05-29T23:15:48.722Z,98693.41
2019-05-29T23:19:54.555Z,98700.48
2019-05-29T23:23:59.620Z,98697.00
2019-05-29T23:28:04.481Z,98701.12
2019-05-29T23:32:09.383Z,98702.03
2019-05-29T23:36:14.273Z,98703.11
2019-05-29T23:40:19.300Z,98698.05
2019-05-29T23:44:24.194Z,98689.33
2019-05-29T23:48:29.094Z,98688.68
2019-05-29T23:52:33.990Z,98691.59
2019-05-29T23:56:38.888Z,98695.53
